Time;durP1;ratioP1;P1;durP2;ratioP2;P2;SDS_P1;SDS_P2;PMS_P1;PMS_P2;Temp;Humidity;BMP_temperature;BMP_pressure;BME280_temperature;BME280_humidity;BME280_pressure;Samples;Min_cycle;Max_cycle;Signal;HPM_P1;HPM_P2
2021/08/10 18:11:22;;;;;;;;;;;25.80;69.00;;;;;;4990821;28;2307720;-94
2021/08/10 18:13:47;;;;;;;;;;;25.60;71.70;;;;;;5055124;28;19912;-93
2021/08/10 18:16:14;;;;;;;;;;;25.60;73.40;;;;;;5055199;28;19915;-93
2021/08/10 18:18:39;;;;;;;;;;;25.60;74.90;;;;;;5054868;28;19948;-95
2021/08/10 18:21:05;;;;;;;;;;;25.70;76.30;;;;;;5059813;28;19924;-93
2021/08/10 18:23:31;;;;;;;;;;;25.60;76.90;;;;;;5067781;28;19962;-93
2021/08/10 18:25:56;;;;;;;;;;;25.60;77.40;;;;;;5056756;28;19913;-93
2021/08/10 18:28:22;;;;;;;;;;;25.70;77.60;;;;;;5061076;28;20320;-93
2021/08/10 18:30:48;;;;;;;;;;;25.70;77.50;;;;;;5053874;28;20262;-93
2021/08/10 18:33:13;;;;;;;;;;;25.80;77.50;;;;;;5053585;28;19913;-94
2021/08/10 18:35:39;;;;;;;;;;;25.90;77.30;;;;;;5053536;28;20400;-95
2021/08/10 18:38:05;;;;;;;;;;;26.00;77.00;;;;;;5053478;28;20349;-95
2021/08/10 18:40:31;;;;;;;;;;;26.10;76.70;;;;;;5053221;28;19916;-93
2021/08/10 18:42:57;;;;;;;;;;;26.10;76.50;;;;;;5053127;28;19951;-92
2021/08/10 18:45:23;;;;;;;;;;;26.20;76.40;;;;;;5053167;28;19963;-93
2021/08/10 18:47:49;;;;;;;;;;;26.20;76.10;;;;;;5053482;28;19934;-93
2021/08/10 18:50:16;;;;;;;;;;;26.20;75.90;;;;;;5053151;28;19909;-94
2021/08/10 18:52:41;;;;;;;;;;;26.30;75.80;;;;;;5053169;28;19998;-92
2021/08/10 18:55:07;;;;;;;;;;;26.30;75.60;;;;;;5055929;28;20364;-93
2021/08/10 18:57:33;;;;;;;;;;;26.30;75.40;;;;;;5063877;28;19928;-93
2021/08/10 18:59:58;;;;;;;;;;;26.30;75.30;;;;;;5074578;28;19964;-94
2021/08/10 19:02:24;;;;;;;;;;;26.30;75.20;;;;;;5084689;28;20379;-93
2021/08/10 19:04:49;;;;;;;;;;;26.30;75.30;;;;;;5045331;28;19913;-96
2021/08/10 19:07:15;;;;;;;;;;;26.30;75.40;;;;;;5066478;28;19916;-95
2021/08/10 19:09:41;;;;;;;;;;;26.30;75.30;;;;;;5052605;28;20327;-92
2021/08/10 19:12:06;;;;;;;;;;;26.30;75.30;;;;;;5053603;28;19909;-94
2021/08/10 19:14:32;;;;;;;;;;;26.30;75.20;;;;;;5047626;28;19916;-95
2021/08/10 19:16:58;;;;;;;;;;;26.30;75.20;;;;;;5034088;28;19913;-93
2021/08/10 19:19:24;;;;;;;;;;;26.30;75.20;;;;;;5033284;28;20015;-93
2021/08/10 19:21:50;;;;;;;;;;;26.30;75.10;;;;;;5024843;28;19913;-92
2021/08/10 19:24:16;;;;;;;;;;;26.30;75.20;;;;;;5020312;28;19979;-92
2021/08/10 19:26:42;;;;;;;;;;;26.20;75.00;;;;;;5038217;28;20008;-94
2021/08/10 19:29:08;;;;;;;;;;;26.20;74.90;;;;;;5019756;28;19948;-94
2021/08/10 19:31:34;;;;;;;;;;;26.20;74.80;;;;;;5019719;28;20375;-93
2021/08/10 19:34:00;;;;;;;;;;;26.20;74.80;;;;;;5019205;28;19909;-92
2021/08/10 19:36:25;;;;;;;;;;;26.20;74.80;;;;;;5020137;28;20352;-94
2021/08/10 19:38:51;;;;;;;;;;;26.20;75.40;;;;;;5019237;28;20365;-93
2021/08/10 19:41:16;;;;;;;;;;;26.20;75.30;;;;;;5018957;28;19956;-94
2021/08/10 19:44:16;;;;;;;;;;;26.20;74.70;;;;;;5019757;28;19963;-93
2021/08/10 19:46:42;;;;;;;;;;;26.10;74.50;;;;;;5019148;28;19909;-92
2021/08/10 19:49:07;;;;;;;;;;;26.20;74.40;;;;;;5018907;28;19936;-94
2021/08/10 19:51:36;;;;;;;;;;;26.10;74.40;;;;;;5019195;28;19989;-92
2021/08/10 19:54:01;;;;;;;;;;;26.10;74.30;;;;;;5019257;28;19909;-92
